sensor_id;sensor_type;location;lat;lon;timestamp;P1;durP1;ratioP1;P2;durP2;ratioP2
28613;SDS011;15806;53.548;9.964;2022-09-29T00:00:03;12.30;;;5.23;;
28613;SDS011;15806;53.548;9.964;2022-09-29T00:01:44;17.05;;;5.70;;
28613;SDS011;15806;53.548;9.964;2022-09-29T00:03:25;14.53;;;5.80;;
28613;SDS011;15806;53.548;9.964;2022-09-29T00:05:05;12.83;;;5.90;;
28613;SDS011;15806;53.548;9.964;2022-09-29T00:06:46;8.98;;;5.18;;
28613;SDS011;15806;53.548;9.964;2022-09-29T00:08:28;16.33;;;5.97;;
28613;SDS011;15806;53.548;9.964;2022-09-29T00:10:09;11.77;;;5.55;;
28613;SDS011;15806;53.548;9.964;2022-09-29T00:11:54;17.52;;;5.28;;
28613;SDS011;15806;53.548;9.964;2022-09-29T00:13:35;15.27;;;6.53;;
28613;SDS011;15806;53.548;9.964;2022-09-29T00:15:16;19.07;;;6.83;;
28613;SDS011;15806;53.548;9.964;2022-09-29T00:16:56;14.77;;;5.60;;
28613;SDS011;15806;53.548;9.964;2022-09-29T00:18:37;17.70;;;5.70;;
28613;SDS011;15806;53.548;9.964;2022-09-29T00:20:17;14.07;;;6.20;;
28613;SDS011;15806;53.548;9.964;2022-09-29T00:21:58;16.43;;;7.07;;
28613;SDS011;15806;53.548;9.964;2022-09-29T00:23:39;12.53;;;5.43;;
28613;SDS011;15806;53.548;9.964;2022-09-29T00:25:19;13.83;;;6.03;;
28613;SDS011;15806;53.548;9.964;2022-09-29T00:27:00;14.90;;;5.73;;
28613;SDS011;15806;53.548;9.964;2022-09-29T00:28:44;11.00;;;5.15;;
28613;SDS011;15806;53.548;9.964;2022-09-29T00:30:28;17.75;;;5.78;;
28613;SDS011;15806;53.548;9.964;2022-09-29T00:32:08;10.80;;;4.90;;
28613;SDS011;15806;53.548;9.964;2022-09-29T00:33:49;14.10;;;6.00;;
28613;SDS011;15806;53.548;9.964;2022-09-29T00:35:30;18.67;;;6.27;;
28613;SDS011;15806;53.548;9.964;2022-09-29T00:37:10;14.23;;;5.70;;
28613;SDS011;15806;53.548;9.964;2022-09-29T00:38:51;12.53;;;5.60;;
28613;SDS011;15806;53.548;9.964;2022-09-29T00:40:32;14.02;;;7.05;;
28613;SDS011;15806;53.548;9.964;2022-09-29T00:42:15;17.10;;;6.73;;
28613;SDS011;15806;53.548;9.964;2022-09-29T00:45:41;15.20;;;6.20;;
28613;SDS011;15806;53.548;9.964;2022-09-29T00:47:21;14.17;;;6.00;;
28613;SDS011;15806;53.548;9.964;2022-09-29T00:50:52;14.32;;;6.10;;
28613;SDS011;15806;53.548;9.964;2022-09-29T00:52:39;12.50;;;6.35;;
28613;SDS011;15806;53.548;9.964;2022-09-29T00:54:24;17.65;;;6.28;;
28613;SDS011;15806;53.548;9.964;2022-09-29T00:56:09;12.80;;;6.30;;
28613;SDS011;15806;53.548;9.964;2022-09-29T00:59:56;12.57;;;5.63;;
28613;SDS011;15806;53.548;9.964;2022-09-29T01:01:41;12.50;;;5.43;;
28613;SDS011;15806;53.548;9.964;2022-09-29T01:03:22;18.10;;;7.53;;
28613;SDS011;15806;53.548;9.964;2022-09-29T01:05:06;13.25;;;5.28;;
28613;SDS011;15806;53.548;9.964;2022-09-29T01:06:52;11.63;;;5.53;;
28613;SDS011;15806;53.548;9.964;2022-09-29T01:08:38;14.32;;;6.05;;
28613;SDS011;15806;53.548;9.964;2022-09-29T01:10:23;17.35;;;6.38;;
28613;SDS011;15806;53.548;9.964;2022-09-29T01:12:03;14.97;;;6.63;;
28613;SDS011;15806;53.548;9.964;2022-09-29T01:13:45;16.50;;;5.72;;
28613;SDS011;15806;53.548;9.964;2022-09-29T01:15:26;16.90;;;5.95;;
28613;SDS011;15806;53.548;9.964;2022-09-29T01:17:07;13.38;;;5.45;;
28613;SDS011;15806;53.548;9.964;2022-09-29T01:18:47;19.10;;;6.03;;
28613;SDS011;15806;53.548;9.964;2022-09-29T01:20:28;14.13;;;5.93;;
28613;SDS011;15806;53.548;9.964;2022-09-29T01:28:25;15.25;;;6.32;;
28613;SDS011;15806;53.548;9.964;2022-09-29T01:46:33;12.32;;;5.55;;
28613;SDS011;15806;53.548;9.964;2022-09-29T01:48:24;15.43;;;6.57;;
28613;SDS011;15806;53.548;9.964;2022-09-29T01:50:12;12.70;;;6.00;;
28613;SDS011;15806;53.548;9.964;2022-09-29T01:52:00;12.27;;;5.50;;
28613;SDS011;15806;53.548;9.964;2022-09-29T01:53:51;19.75;;;7.95;;
28613;SDS011;15806;53.548;9.964;2022-09-29T01:55:36;15.73;;;7.07;;
28613;SDS011;15806;53.548;9.964;2022-09-29T01:57:26;14.82;;;6.22;;
28613;SDS011;15806;53.548;9.964;2022-09-29T01:59:18;18.55;;;6.00;;
28613;SDS011;15806;53.548;9.964;2022-09-29T02:01:27;13.20;;;5.93;;
28613;SDS011;15806;53.548;9.964;2022-09-29T02:03:27;14.52;;;6.47;;
28613;SDS011;15806;53.548;9.964;2022-09-29T02:07:11;15.55;;;6.22;;
28613;SDS011;15806;53.548;9.964;2022-09-29T02:08:58;16.58;;;5.63;;
28613;SDS011;15806;53.548;9.964;2022-09-29T02:10:46;17.73;;;6.40;;
28613;SDS011;15806;53.548;9.964;2022-09-29T02:12:33;12.18;;;5.80;;
28613;SDS011;15806;53.548;9.964;2022-09-29T02:14:59;13.07;;;5.93;;
28613;SDS011;15806;53.548;9.964;2022-09-29T02:16:30;14.95;;;5.85;;
28613;SDS011;15806;53.548;9.964;2022-09-29T02:18:17;15.93;;;6.10;;
28613;SDS011;15806;53.548;9.964;2022-09-29T02:20:02;16.17;;;6.25;;
28613;SDS011;15806;53.548;9.964;2022-09-29T02:23:23;14.68;;;5.53;;
28613;SDS011;15806;53.548;9.964;2022-09-29T02:25:04;13.80;;;5.87;;
28613;SDS011;15806;53.548;9.964;2022-09-29T02:26:51;15.82;;;6.15;;
28613;SDS011;15806;53.548;9.964;2022-09-29T02:28:31;13.47;;;5.43;;
28613;SDS011;15806;53.548;9.964;2022-09-29T02:30:12;11.60;;;5.30;;
28613;SDS011;15806;53.548;9.964;2022-09-29T02:31:53;12.70;;;5.80;;
28613;SDS011;15806;53.548;9.964;2022-09-29T02:33:38;14.68;;;5.55;;
28613;SDS011;15806;53.548;9.964;2022-09-29T02:35:18;13.80;;;6.23;;
28613;SDS011;15806;53.548;9.964;2022-09-29T02:39:14;12.93;;;5.90;;
28613;SDS011;15806;53.548;9.964;2022-09-29T02:47:15;15.18;;;6.75;;
28613;SDS011;15806;53.548;9.964;2022-09-29T02:49:05;15.35;;;6.70;;
28613;SDS011;15806;53.548;9.964;2022-09-29T02:51:00;12.93;;;5.82;;
28613;SDS011;15806;53.548;9.964;2022-09-29T02:52:53;18.30;;;6.80;;
28613;SDS011;15806;53.548;9.964;2022-09-29T02:54:56;20.50;;;6.93;;
28613;SDS011;15806;53.548;9.964;2022-09-29T02:57:04;14.38;;;6.47;;
28613;SDS011;15806;53.548;9.964;2022-09-29T02:59:36;18.20;;;6.68;;
28613;SDS011;15806;53.548;9.964;2022-09-29T03:00:57;16.70;;;6.93;;
28613;SDS011;15806;53.548;9.964;2022-09-29T03:02:39;15.65;;;6.72;;
28613;SDS011;15806;53.548;9.964;2022-09-29T03:04:23;14.65;;;6.60;;
28613;SDS011;15806;53.548;9.964;2022-09-29T03:06:05;15.63;;;6.70;;
28613;SDS011;15806;53.548;9.964;2022-09-29T03:07:46;15.57;;;7.40;;
28613;SDS011;15806;53.548;9.964;2022-09-29T03:09:27;20.77;;;6.50;;
28613;SDS011;15806;53.548;9.964;2022-09-29T03:11:07;17.33;;;6.40;;
28613;SDS011;15806;53.548;9.964;2022-09-29T03:12:48;14.27;;;6.07;;
28613;SDS011;15806;53.548;9.964;2022-09-29T03:14:28;14.50;;;6.77;;
28613;SDS011;15806;53.548;9.964;2022-09-29T03:16:09;17.03;;;6.77;;
28613;SDS011;15806;53.548;9.964;2022-09-29T03:17:49;16.87;;;6.70;;
28613;SDS011;15806;53.548;9.964;2022-09-29T03:19:33;15.23;;;7.13;;
28613;SDS011;15806;53.548;9.964;2022-09-29T03:21:14;17.37;;;7.87;;
28613;SDS011;15806;53.548;9.964;2022-09-29T03:22:55;14.57;;;6.47;;
28613;SDS011;15806;53.548;9.964;2022-09-29T03:24:36;16.52;;;7.38;;
28613;SDS011;15806;53.548;9.964;2022-09-29T03:26:16;16.53;;;7.07;;
28613;SDS011;15806;53.548;9.964;2022-09-29T03:27:57;21.97;;;6.97;;
28613;SDS011;15806;53.548;9.964;2022-09-29T03:29:37;18.20;;;7.20;;
28613;SDS011;15806;53.548;9.964;2022-09-29T03:31:18;23.60;;;8.27;;
28613;SDS011;15806;53.548;9.964;2022-09-29T03:32:58;16.63;;;7.13;;
28613;SDS011;15806;53.548;9.964;2022-09-29T03:34:39;18.70;;;7.83;;
28613;SDS011;15806;53.548;9.964;2022-09-29T03:36:19;17.77;;;7.47;;
28613;SDS011;15806;53.548;9.964;2022-09-29T03:38:00;17.60;;;7.70;;
28613;SDS011;15806;53.548;9.964;2022-09-29T03:39:40;18.47;;;7.97;;
28613;SDS011;15806;53.548;9.964;2022-09-29T03:41:21;17.37;;;6.90;;
28613;SDS011;15806;53.548;9.964;2022-09-29T03:43:01;15.70;;;7.47;;
28613;SDS011;15806;53.548;9.964;2022-09-29T03:44:42;18.33;;;7.07;;
28613;SDS011;15806;53.548;9.964;2022-09-29T03:46:23;22.60;;;7.27;;
28613;SDS011;15806;53.548;9.964;2022-09-29T03:48:03;17.43;;;6.97;;
28613;SDS011;15806;53.548;9.964;2022-09-29T03:49:44;15.53;;;7.17;;
28613;SDS011;15806;53.548;9.964;2022-09-29T03:51:24;18.30;;;7.20;;
28613;SDS011;15806;53.548;9.964;2022-09-29T03:53:05;20.57;;;8.03;;
28613;SDS011;15806;53.548;9.964;2022-09-29T03:54:45;16.63;;;7.70;;
28613;SDS011;15806;53.548;9.964;2022-09-29T03:56:26;17.90;;;7.30;;
28613;SDS011;15806;53.548;9.964;2022-09-29T03:58:06;19.10;;;7.77;;
28613;SDS011;15806;53.548;9.964;2022-09-29T03:59:47;24.57;;;9.17;;
28613;SDS011;15806;53.548;9.964;2022-09-29T04:01:27;21.20;;;8.77;;
28613;SDS011;15806;53.548;9.964;2022-09-29T04:03:08;21.67;;;8.67;;
28613;SDS011;15806;53.548;9.964;2022-09-29T04:04:48;17.90;;;7.83;;
28613;SDS011;15806;53.548;9.964;2022-09-29T04:06:29;22.10;;;8.57;;
28613;SDS011;15806;53.548;9.964;2022-09-29T04:08:09;24.33;;;9.40;;
28613;SDS011;15806;53.548;9.964;2022-09-29T04:09:50;17.70;;;7.77;;
28613;SDS011;15806;53.548;9.964;2022-09-29T04:11:31;22.77;;;9.33;;
28613;SDS011;15806;53.548;9.964;2022-09-29T04:13:11;19.10;;;7.80;;
28613;SDS011;15806;53.548;9.964;2022-09-29T04:14:52;21.17;;;8.33;;
28613;SDS011;15806;53.548;9.964;2022-09-29T04:16:32;20.23;;;7.80;;
28613;SDS011;15806;53.548;9.964;2022-09-29T04:18:13;19.17;;;7.07;;
28613;SDS011;15806;53.548;9.964;2022-09-29T04:19:54;19.57;;;7.90;;
28613;SDS011;15806;53.548;9.964;2022-09-29T04:21:34;20.53;;;8.53;;
28613;SDS011;15806;53.548;9.964;2022-09-29T04:23:15;18.37;;;8.73;;
28613;SDS011;15806;53.548;9.964;2022-09-29T04:24:55;18.67;;;8.57;;
28613;SDS011;15806;53.548;9.964;2022-09-29T04:26:36;18.87;;;8.73;;
28613;SDS011;15806;53.548;9.964;2022-09-29T04:28:16;20.83;;;8.60;;
28613;SDS011;15806;53.548;9.964;2022-09-29T04:29:57;25.57;;;9.83;;
28613;SDS011;15806;53.548;9.964;2022-09-29T04:31:37;21.07;;;8.73;;
28613;SDS011;15806;53.548;9.964;2022-09-29T04:33:18;19.80;;;8.47;;
28613;SDS011;15806;53.548;9.964;2022-09-29T04:34:58;24.30;;;9.33;;
28613;SDS011;15806;53.548;9.964;2022-09-29T04:36:39;22.90;;;9.17;;
28613;SDS011;15806;53.548;9.964;2022-09-29T04:38:20;18.57;;;8.10;;
28613;SDS011;15806;53.548;9.964;2022-09-29T04:40:01;20.87;;;8.90;;
28613;SDS011;15806;53.548;9.964;2022-09-29T04:43:22;19.40;;;7.88;;
28613;SDS011;15806;53.548;9.964;2022-09-29T04:45:03;21.43;;;9.67;;
28613;SDS011;15806;53.548;9.964;2022-09-29T04:46:44;18.48;;;8.40;;
28613;SDS011;15806;53.548;9.964;2022-09-29T04:48:24;23.90;;;9.50;;
28613;SDS011;15806;53.548;9.964;2022-09-29T04:50:05;20.37;;;8.93;;
28613;SDS011;15806;53.548;9.964;2022-09-29T04:51:46;19.15;;;8.35;;
28613;SDS011;15806;53.548;9.964;2022-09-29T04:55:45;26.65;;;8.77;;
28613;SDS011;15806;53.548;9.964;2022-09-29T04:57:25;18.87;;;8.33;;
28613;SDS011;15806;53.548;9.964;2022-09-29T04:59:06;21.67;;;8.77;;
28613;SDS011;15806;53.548;9.964;2022-09-29T05:00:46;23.80;;;8.37;;
28613;SDS011;15806;53.548;9.964;2022-09-29T05:02:27;20.50;;;9.03;;
28613;SDS011;15806;53.548;9.964;2022-09-29T05:04:07;18.83;;;8.07;;
28613;SDS011;15806;53.548;9.964;2022-09-29T05:05:48;18.57;;;8.63;;
28613;SDS011;15806;53.548;9.964;2022-09-29T05:07:34;20.98;;;8.90;;
28613;SDS011;15806;53.548;9.964;2022-09-29T05:09:14;20.23;;;9.27;;
28613;SDS011;15806;53.548;9.964;2022-09-29T05:10:55;25.50;;;10.37;;
28613;SDS011;15806;53.548;9.964;2022-09-29T05:12:36;28.13;;;9.23;;
28613;SDS011;15806;53.548;9.964;2022-09-29T05:14:16;22.90;;;9.30;;
28613;SDS011;15806;53.548;9.964;2022-09-29T05:15:57;22.07;;;9.63;;
28613;SDS011;15806;53.548;9.964;2022-09-29T05:17:37;25.80;;;10.20;;
28613;SDS011;15806;53.548;9.964;2022-09-29T05:19:18;19.67;;;7.90;;
28613;SDS011;15806;53.548;9.964;2022-09-29T05:21:05;18.20;;;8.30;;
28613;SDS011;15806;53.548;9.964;2022-09-29T05:22:47;21.40;;;8.32;;
28613;SDS011;15806;53.548;9.964;2022-09-29T05:24:28;25.07;;;9.53;;
28613;SDS011;15806;53.548;9.964;2022-09-29T05:26:10;21.60;;;9.60;;
28613;SDS011;15806;53.548;9.964;2022-09-29T05:27:51;26.50;;;10.65;;
28613;SDS011;15806;53.548;9.964;2022-09-29T05:29:32;22.77;;;9.13;;
28613;SDS011;15806;53.548;9.964;2022-09-29T05:31:13;21.53;;;10.13;;
28613;SDS011;15806;53.548;9.964;2022-09-29T05:32:54;22.52;;;10.23;;
28613;SDS011;15806;53.548;9.964;2022-09-29T05:34:34;24.73;;;10.23;;
28613;SDS011;15806;53.548;9.964;2022-09-29T05:36:15;27.60;;;10.60;;
28613;SDS011;15806;53.548;9.964;2022-09-29T05:37:55;25.13;;;8.90;;
28613;SDS011;15806;53.548;9.964;2022-09-29T05:39:36;27.60;;;9.93;;
28613;SDS011;15806;53.548;9.964;2022-09-29T05:41:16;25.37;;;10.77;;
28613;SDS011;15806;53.548;9.964;2022-09-29T05:42:57;22.93;;;9.77;;
28613;SDS011;15806;53.548;9.964;2022-09-29T05:44:38;25.60;;;10.45;;
28613;SDS011;15806;53.548;9.964;2022-09-29T05:46:19;27.53;;;10.37;;
28613;SDS011;15806;53.548;9.964;2022-09-29T05:48:00;23.40;;;9.90;;
28613;SDS011;15806;53.548;9.964;2022-09-29T05:49:41;27.50;;;11.60;;
28613;SDS011;15806;53.548;9.964;2022-09-29T05:51:22;26.37;;;10.17;;
28613;SDS011;15806;53.548;9.964;2022-09-29T05:53:03;27.63;;;10.13;;
28613;SDS011;15806;53.548;9.964;2022-09-29T05:54:44;23.43;;;9.57;;
28613;SDS011;15806;53.548;9.964;2022-09-29T05:56:25;22.43;;;9.90;;
28613;SDS011;15806;53.548;9.964;2022-09-29T05:58:05;25.33;;;9.68;;
28613;SDS011;15806;53.548;9.964;2022-09-29T05:59:46;25.50;;;10.50;;
28613;SDS011;15806;53.548;9.964;2022-09-29T06:01:27;27.43;;;9.93;;
28613;SDS011;15806;53.548;9.964;2022-09-29T06:03:07;24.67;;;10.00;;
28613;SDS011;15806;53.548;9.964;2022-09-29T06:04:48;26.97;;;10.20;;
28613;SDS011;15806;53.548;9.964;2022-09-29T06:06:28;24.77;;;10.53;;
28613;SDS011;15806;53.548;9.964;2022-09-29T06:08:09;21.20;;;9.27;;
28613;SDS011;15806;53.548;9.964;2022-09-29T06:09:49;23.53;;;9.77;;
28613;SDS011;15806;53.548;9.964;2022-09-29T06:11:30;28.63;;;11.00;;
28613;SDS011;15806;53.548;9.964;2022-09-29T06:13:10;25.87;;;9.73;;
28613;SDS011;15806;53.548;9.964;2022-09-29T06:14:51;20.97;;;9.43;;
28613;SDS011;15806;53.548;9.964;2022-09-29T06:16:32;22.30;;;9.17;;
28613;SDS011;15806;53.548;9.964;2022-09-29T06:18:12;21.00;;;9.52;;
28613;SDS011;15806;53.548;9.964;2022-09-29T06:19:53;22.53;;;9.07;;
28613;SDS011;15806;53.548;9.964;2022-09-29T06:21:33;20.03;;;8.57;;
28613;SDS011;15806;53.548;9.964;2022-09-29T06:23:14;20.23;;;9.20;;
28613;SDS011;15806;53.548;9.964;2022-09-29T06:24:55;23.50;;;9.33;;
28613;SDS011;15806;53.548;9.964;2022-09-29T06:26:35;21.53;;;9.37;;
28613;SDS011;15806;53.548;9.964;2022-09-29T06:28:16;18.55;;;9.15;;
28613;SDS011;15806;53.548;9.964;2022-09-29T06:30:00;20.17;;;10.07;;
28613;SDS011;15806;53.548;9.964;2022-09-29T06:31:40;21.10;;;8.23;;
28613;SDS011;15806;53.548;9.964;2022-09-29T06:33:21;19.97;;;9.37;;
28613;SDS011;15806;53.548;9.964;2022-09-29T06:35:01;18.37;;;8.77;;
28613;SDS011;15806;53.548;9.964;2022-09-29T06:36:43;23.07;;;9.37;;
28613;SDS011;15806;53.548;9.964;2022-09-29T06:38:24;20.52;;;9.63;;
28613;SDS011;15806;53.548;9.964;2022-09-29T06:40:05;18.97;;;8.70;;
28613;SDS011;15806;53.548;9.964;2022-09-29T06:41:46;19.27;;;8.65;;
28613;SDS011;15806;53.548;9.964;2022-09-29T06:43:27;18.70;;;7.67;;
28613;SDS011;15806;53.548;9.964;2022-09-29T06:45:08;16.43;;;8.07;;
28613;SDS011;15806;53.548;9.964;2022-09-29T06:46:50;18.20;;;9.32;;
28613;SDS011;15806;53.548;9.964;2022-09-29T06:48:31;17.25;;;8.15;;
28613;SDS011;15806;53.548;9.964;2022-09-29T06:50:11;18.60;;;8.60;;
28613;SDS011;15806;53.548;9.964;2022-09-29T06:51:52;16.80;;;8.40;;
28613;SDS011;15806;53.548;9.964;2022-09-29T06:53:32;16.43;;;7.97;;
28613;SDS011;15806;53.548;9.964;2022-09-29T06:55:13;18.60;;;8.00;;
28613;SDS011;15806;53.548;9.964;2022-09-29T06:56:54;17.03;;;7.83;;
28613;SDS011;15806;53.548;9.964;2022-09-29T06:58:34;19.20;;;8.43;;
28613;SDS011;15806;53.548;9.964;2022-09-29T07:00:15;18.60;;;8.30;;
28613;SDS011;15806;53.548;9.964;2022-09-29T07:01:56;22.20;;;9.07;;
28613;SDS011;15806;53.548;9.964;2022-09-29T07:03:36;20.17;;;8.67;;
28613;SDS011;15806;53.548;9.964;2022-09-29T07:05:17;17.53;;;7.83;;
28613;SDS011;15806;53.548;9.964;2022-09-29T07:06:57;23.20;;;9.43;;
28613;SDS011;15806;53.548;9.964;2022-09-29T07:08:38;15.67;;;7.80;;
28613;SDS011;15806;53.548;9.964;2022-09-29T07:10:18;17.63;;;8.40;;
28613;SDS011;15806;53.548;9.964;2022-09-29T07:11:59;18.30;;;8.53;;
28613;SDS011;15806;53.548;9.964;2022-09-29T07:13:40;22.23;;;9.77;;
28613;SDS011;15806;53.548;9.964;2022-09-29T07:15:20;17.60;;;7.77;;
28613;SDS011;15806;53.548;9.964;2022-09-29T07:17:01;19.83;;;8.33;;
28613;SDS011;15806;53.548;9.964;2022-09-29T07:18:41;21.43;;;9.27;;
28613;SDS011;15806;53.548;9.964;2022-09-29T07:20:22;20.60;;;8.77;;
28613;SDS011;15806;53.548;9.964;2022-09-29T07:22:04;22.92;;;9.82;;
28613;SDS011;15806;53.548;9.964;2022-09-29T07:23:45;21.50;;;8.53;;
28613;SDS011;15806;53.548;9.964;2022-09-29T07:25:26;19.92;;;9.27;;
28613;SDS011;15806;53.548;9.964;2022-09-29T07:27:10;19.05;;;8.63;;
28613;SDS011;15806;53.548;9.964;2022-09-29T07:28:50;18.03;;;9.13;;
28613;SDS011;15806;53.548;9.964;2022-09-29T07:30:31;18.43;;;7.83;;
28613;SDS011;15806;53.548;9.964;2022-09-29T07:32:11;18.50;;;8.67;;
28613;SDS011;15806;53.548;9.964;2022-09-29T07:33:52;18.93;;;9.07;;
28613;SDS011;15806;53.548;9.964;2022-09-29T07:35:32;23.13;;;9.70;;
28613;SDS011;15806;53.548;9.964;2022-09-29T07:37:13;22.97;;;9.33;;
28613;SDS011;15806;53.548;9.964;2022-09-29T07:38:54;22.90;;;10.33;;
28613;SDS011;15806;53.548;9.964;2022-09-29T07:40:34;18.47;;;8.10;;
28613;SDS011;15806;53.548;9.964;2022-09-29T07:42:15;20.13;;;8.63;;
28613;SDS011;15806;53.548;9.964;2022-09-29T07:43:55;16.73;;;8.90;;
28613;SDS011;15806;53.548;9.964;2022-09-29T07:45:36;19.83;;;9.47;;
28613;SDS011;15806;53.548;9.964;2022-09-29T07:47:16;22.43;;;9.07;;
28613;SDS011;15806;53.548;9.964;2022-09-29T07:48:57;21.07;;;9.33;;
28613;SDS011;15806;53.548;9.964;2022-09-29T07:50:37;22.20;;;9.07;;
28613;SDS011;15806;53.548;9.964;2022-09-29T07:52:18;17.77;;;9.00;;
28613;SDS011;15806;53.548;9.964;2022-09-29T07:54:02;21.23;;;10.27;;
28613;SDS011;15806;53.548;9.964;2022-09-29T07:55:44;18.48;;;9.32;;
28613;SDS011;15806;53.548;9.964;2022-09-29T07:57:24;20.23;;;9.63;;
28613;SDS011;15806;53.548;9.964;2022-09-29T07:59:05;18.87;;;9.37;;
28613;SDS011;15806;53.548;9.964;2022-09-29T08:00:45;19.23;;;9.37;;
28613;SDS011;15806;53.548;9.964;2022-09-29T08:02:33;20.40;;;9.00;;
28613;SDS011;15806;53.548;9.964;2022-09-29T08:04:13;20.67;;;9.90;;
28613;SDS011;15806;53.548;9.964;2022-09-29T08:05:54;20.37;;;8.83;;
28613;SDS011;15806;53.548;9.964;2022-09-29T08:07:35;22.58;;;8.90;;
28613;SDS011;15806;53.548;9.964;2022-09-29T08:09:15;16.47;;;8.67;;
28613;SDS011;15806;53.548;9.964;2022-09-29T08:11:03;22.37;;;8.73;;
28613;SDS011;15806;53.548;9.964;2022-09-29T08:12:45;21.88;;;9.82;;
28613;SDS011;15806;53.548;9.964;2022-09-29T08:14:26;17.47;;;8.77;;
28613;SDS011;15806;53.548;9.964;2022-09-29T08:16:07;19.73;;;8.87;;
28613;SDS011;15806;53.548;9.964;2022-09-29T08:17:53;18.25;;;8.80;;
28613;SDS011;15806;53.548;9.964;2022-09-29T08:19:34;18.20;;;9.55;;
28613;SDS011;15806;53.548;9.964;2022-09-29T08:21:15;20.03;;;8.67;;
28613;SDS011;15806;53.548;9.964;2022-09-29T08:22:55;17.87;;;8.97;;
28613;SDS011;15806;53.548;9.964;2022-09-29T08:26:18;16.55;;;8.38;;
28613;SDS011;15806;53.548;9.964;2022-09-29T08:28:00;17.42;;;8.32;;
28613;SDS011;15806;53.548;9.964;2022-09-29T08:29:41;19.10;;;8.50;;
28613;SDS011;15806;53.548;9.964;2022-09-29T08:31:21;16.87;;;9.30;;
28613;SDS011;15806;53.548;9.964;2022-09-29T08:33:02;18.73;;;8.07;;
28613;SDS011;15806;53.548;9.964;2022-09-29T08:34:43;24.88;;;9.70;;
28613;SDS011;15806;53.548;9.964;2022-09-29T08:36:23;15.63;;;7.97;;
28613;SDS011;15806;53.548;9.964;2022-09-29T08:38:04;14.10;;;7.80;;
28613;SDS011;15806;53.548;9.964;2022-09-29T08:39:45;19.03;;;8.40;;
28613;SDS011;15806;53.548;9.964;2022-09-29T08:43:26;14.48;;;7.35;;
28613;SDS011;15806;53.548;9.964;2022-09-29T08:45:10;13.90;;;7.78;;
28613;SDS011;15806;53.548;9.964;2022-09-29T08:46:55;17.13;;;8.55;;
28613;SDS011;15806;53.548;9.964;2022-09-29T08:48:40;16.98;;;7.68;;
28613;SDS011;15806;53.548;9.964;2022-09-29T08:50:30;15.93;;;8.48;;
28613;SDS011;15806;53.548;9.964;2022-09-29T08:52:27;18.35;;;8.63;;
28613;SDS011;15806;53.548;9.964;2022-09-29T08:54:40;19.13;;;8.40;;
28613;SDS011;15806;53.548;9.964;2022-09-29T08:58:01;14.88;;;7.40;;
28613;SDS011;15806;53.548;9.964;2022-09-29T08:59:41;14.87;;;7.63;;
28613;SDS011;15806;53.548;9.964;2022-09-29T09:03:08;21.27;;;9.02;;
28613;SDS011;15806;53.548;9.964;2022-09-29T09:05:17;14.88;;;7.85;;
28613;SDS011;15806;53.548;9.964;2022-09-29T09:09:05;17.05;;;8.20;;
28613;SDS011;15806;53.548;9.964;2022-09-29T09:12:59;16.65;;;8.68;;
28613;SDS011;15806;53.548;9.964;2022-09-29T09:15:22;18.52;;;9.15;;
28613;SDS011;15806;53.548;9.964;2022-09-29T09:20:00;18.73;;;9.32;;
28613;SDS011;15806;53.548;9.964;2022-09-29T09:21:41;22.00;;;10.02;;
28613;SDS011;15806;53.548;9.964;2022-09-29T09:25:35;18.02;;;9.75;;
28613;SDS011;15806;53.548;9.964;2022-09-29T09:27:23;18.65;;;9.77;;
28613;SDS011;15806;53.548;9.964;2022-09-29T09:29:27;22.00;;;10.73;;
28613;SDS011;15806;53.548;9.964;2022-09-29T09:33:18;21.25;;;10.60;;
28613;SDS011;15806;53.548;9.964;2022-09-29T09:35:07;19.13;;;9.25;;
28613;SDS011;15806;53.548;9.964;2022-09-29T09:38:54;15.15;;;8.60;;
28613;SDS011;15806;53.548;9.964;2022-09-29T09:40:47;16.70;;;7.82;;
28613;SDS011;15806;53.548;9.964;2022-09-29T09:42:31;17.73;;;8.43;;
28613;SDS011;15806;53.548;9.964;2022-09-29T09:44:19;15.30;;;8.23;;
28613;SDS011;15806;53.548;9.964;2022-09-29T09:46:15;16.98;;;8.98;;
28613;SDS011;15806;53.548;9.964;2022-09-29T09:50:22;19.13;;;8.30;;
28613;SDS011;15806;53.548;9.964;2022-09-29T09:52:11;14.82;;;8.40;;
28613;SDS011;15806;53.548;9.964;2022-09-29T09:53:59;19.60;;;8.23;;
28613;SDS011;15806;53.548;9.964;2022-09-29T09:55:46;15.60;;;8.02;;
28613;SDS011;15806;53.548;9.964;2022-09-29T09:59:41;14.40;;;7.37;;
28613;SDS011;15806;53.548;9.964;2022-09-29T10:01:36;19.05;;;8.45;;
28613;SDS011;15806;53.548;9.964;2022-09-29T10:03:16;19.27;;;7.03;;
28613;SDS011;15806;53.548;9.964;2022-09-29T10:05:00;12.13;;;7.07;;
28613;SDS011;15806;53.548;9.964;2022-09-29T10:06:40;15.63;;;7.68;;
28613;SDS011;15806;53.548;9.964;2022-09-29T10:08:34;14.27;;;6.87;;
28613;SDS011;15806;53.548;9.964;2022-09-29T10:10:27;14.00;;;7.60;;
28613;SDS011;15806;53.548;9.964;2022-09-29T10:12:19;12.23;;;6.93;;
28613;SDS011;15806;53.548;9.964;2022-09-29T10:15:53;13.57;;;6.18;;
28613;SDS011;15806;53.548;9.964;2022-09-29T10:18:02;12.48;;;6.15;;
28613;SDS011;15806;53.548;9.964;2022-09-29T10:21:38;13.38;;;6.93;;
28613;SDS011;15806;53.548;9.964;2022-09-29T10:25:17;13.60;;;6.82;;
28613;SDS011;15806;53.548;9.964;2022-09-29T10:26:59;13.48;;;7.25;;
28613;SDS011;15806;53.548;9.964;2022-09-29T10:28:45;13.27;;;6.78;;
28613;SDS011;15806;53.548;9.964;2022-09-29T10:30:32;13.38;;;6.82;;
28613;SDS011;15806;53.548;9.964;2022-09-29T10:32:16;12.13;;;6.15;;
28613;SDS011;15806;53.548;9.964;2022-09-29T10:36:02;11.73;;;6.30;;
28613;SDS011;15806;53.548;9.964;2022-09-29T10:37:47;11.40;;;6.47;;
28613;SDS011;15806;53.548;9.964;2022-09-29T10:39:32;9.98;;;5.10;;
28613;SDS011;15806;53.548;9.964;2022-09-29T10:41:23;10.20;;;5.45;;
28613;SDS011;15806;53.548;9.964;2022-09-29T10:46:56;10.68;;;5.65;;
28613;SDS011;15806;53.548;9.964;2022-09-29T10:48:36;12.83;;;4.77;;
28613;SDS011;15806;53.548;9.964;2022-09-29T10:50:24;8.93;;;4.80;;
28613;SDS011;15806;53.548;9.964;2022-09-29T10:52:21;11.25;;;5.30;;
28613;SDS011;15806;53.548;9.964;2022-09-29T10:54:07;10.25;;;4.97;;
28613;SDS011;15806;53.548;9.964;2022-09-29T10:55:50;10.05;;;4.90;;
28613;SDS011;15806;53.548;9.964;2022-09-29T10:57:33;11.82;;;6.03;;
28613;SDS011;15806;53.548;9.964;2022-09-29T10:59:14;8.90;;;5.07;;
28613;SDS011;15806;53.548;9.964;2022-09-29T11:01:11;11.38;;;5.35;;
28613;SDS011;15806;53.548;9.964;2022-09-29T11:02:56;9.98;;;4.72;;
28613;SDS011;15806;53.548;9.964;2022-09-29T11:04:54;10.93;;;5.38;;
28613;SDS011;15806;53.548;9.964;2022-09-29T11:06:37;10.20;;;4.40;;
28613;SDS011;15806;53.548;9.964;2022-09-29T11:08:20;11.95;;;5.55;;
28613;SDS011;15806;53.548;9.964;2022-09-29T11:10:01;12.00;;;5.53;;
28613;SDS011;15806;53.548;9.964;2022-09-29T11:17:26;13.70;;;6.03;;
28613;SDS011;15806;53.548;9.964;2022-09-29T11:19:10;11.88;;;5.80;;
28613;SDS011;15806;53.548;9.964;2022-09-29T11:23:03;12.90;;;6.15;;
28613;SDS011;15806;53.548;9.964;2022-09-29T11:28:53;15.13;;;6.85;;
28613;SDS011;15806;53.548;9.964;2022-09-29T11:33:03;11.90;;;6.13;;
28613;SDS011;15806;53.548;9.964;2022-09-29T11:37:18;13.32;;;6.25;;
28613;SDS011;15806;53.548;9.964;2022-09-29T11:39:28;12.88;;;5.88;;
28613;SDS011;15806;53.548;9.964;2022-09-29T11:45:24;13.20;;;6.80;;
28613;SDS011;15806;53.548;9.964;2022-09-29T11:51:04;14.77;;;6.45;;
28613;SDS011;15806;53.548;9.964;2022-09-29T11:53:17;16.92;;;7.68;;
28613;SDS011;15806;53.548;9.964;2022-09-29T11:57:08;16.30;;;7.80;;
28613;SDS011;15806;53.548;9.964;2022-09-29T12:03:08;13.73;;;6.93;;
28613;SDS011;15806;53.548;9.964;2022-09-29T12:05:19;15.95;;;7.43;;